sensor_id;sensor_type;location;lat;lon;timestamp;P1;durP1;ratioP1;P2;durP2;ratioP2
10904;SDS011;5505;51.450;9.254;2023-04-06T00:00:38;6.80;;;5.03;;
10904;SDS011;5505;51.450;9.254;2023-04-06T00:03:25;5.80;;;5.30;;
10904;SDS011;5505;51.450;9.254;2023-04-06T00:06:12;6.30;;;5.57;;
10904;SDS011;5505;51.450;9.254;2023-04-06T00:08:59;5.67;;;5.13;;
10904;SDS011;5505;51.450;9.254;2023-04-06T00:11:46;5.90;;;5.30;;
10904;SDS011;5505;51.450;9.254;2023-04-06T00:14:34;5.60;;;5.10;;
10904;SDS011;5505;51.450;9.254;2023-04-06T00:17:21;7.80;;;5.37;;
10904;SDS011;5505;51.450;9.254;2023-04-06T00:20:08;6.50;;;5.53;;
10904;SDS011;5505;51.450;9.254;2023-04-06T00:22:56;5.33;;;4.83;;
10904;SDS011;5505;51.450;9.254;2023-04-06T00:25:43;7.70;;;5.53;;
10904;SDS011;5505;51.450;9.254;2023-04-06T00:28:29;6.20;;;5.60;;
10904;SDS011;5505;51.450;9.254;2023-04-06T00:31:18;6.57;;;5.20;;
10904;SDS011;5505;51.450;9.254;2023-04-06T00:34:05;5.60;;;4.83;;
10904;SDS011;5505;51.450;9.254;2023-04-06T00:36:52;5.90;;;5.30;;
10904;SDS011;5505;51.450;9.254;2023-04-06T00:39:39;6.33;;;5.00;;
10904;SDS011;5505;51.450;9.254;2023-04-06T00:42:26;6.20;;;5.07;;
10904;SDS011;5505;51.450;9.254;2023-04-06T00:45:12;5.73;;;5.20;;
10904;SDS011;5505;51.450;9.254;2023-04-06T00:48:01;6.00;;;5.40;;
10904;SDS011;5505;51.450;9.254;2023-04-06T00:50:48;8.53;;;5.43;;
10904;SDS011;5505;51.450;9.254;2023-04-06T00:53:35;6.27;;;4.83;;
10904;SDS011;5505;51.450;9.254;2023-04-06T00:56:22;5.83;;;5.17;;
10904;SDS011;5505;51.450;9.254;2023-04-06T00:59:11;5.40;;;4.90;;
10904;SDS011;5505;51.450;9.254;2023-04-06T01:01:58;5.70;;;5.10;;
10904;SDS011;5505;51.450;9.254;2023-04-06T01:04:47;5.33;;;4.83;;
10904;SDS011;5505;51.450;9.254;2023-04-06T01:07:33;7.50;;;5.40;;
10904;SDS011;5505;51.450;9.254;2023-04-06T01:10:24;7.20;;;5.80;;
10904;SDS011;5505;51.450;9.254;2023-04-06T01:13:11;7.33;;;6.10;;
10904;SDS011;5505;51.450;9.254;2023-04-06T01:15:58;7.03;;;6.33;;
10904;SDS011;5505;51.450;9.254;2023-04-06T01:18:45;7.57;;;6.00;;
10904;SDS011;5505;51.450;9.254;2023-04-06T01:21:33;7.03;;;5.73;;
10904;SDS011;5505;51.450;9.254;2023-04-06T01:24:21;7.13;;;6.00;;
10904;SDS011;5505;51.450;9.254;2023-04-06T01:27:08;6.87;;;6.20;;
10904;SDS011;5505;51.450;9.254;2023-04-06T01:29:55;6.13;;;5.60;;
10904;SDS011;5505;51.450;9.254;2023-04-06T01:32:42;7.67;;;5.97;;
10904;SDS011;5505;51.450;9.254;2023-04-06T01:35:29;6.53;;;5.80;;
10904;SDS011;5505;51.450;9.254;2023-04-06T01:38:16;7.23;;;5.70;;
10904;SDS011;5505;51.450;9.254;2023-04-06T01:41:05;7.77;;;6.27;;
10904;SDS011;5505;51.450;9.254;2023-04-06T01:43:51;6.30;;;5.70;;
10904;SDS011;5505;51.450;9.254;2023-04-06T01:46:39;7.13;;;5.63;;
10904;SDS011;5505;51.450;9.254;2023-04-06T01:49:26;6.77;;;5.57;;
10904;SDS011;5505;51.450;9.254;2023-04-06T01:52:13;6.53;;;5.87;;
10904;SDS011;5505;51.450;9.254;2023-04-06T01:55:00;8.50;;;5.80;;
10904;SDS011;5505;51.450;9.254;2023-04-06T01:57:48;8.63;;;5.93;;
10904;SDS011;5505;51.450;9.254;2023-04-06T02:00:35;8.77;;;5.60;;
10904;SDS011;5505;51.450;9.254;2023-04-06T02:03:22;6.10;;;5.50;;
10904;SDS011;5505;51.450;9.254;2023-04-06T02:06:09;6.30;;;5.63;;
10904;SDS011;5505;51.450;9.254;2023-04-06T02:08:56;5.80;;;5.30;;
10904;SDS011;5505;51.450;9.254;2023-04-06T02:11:43;6.47;;;5.37;;
10904;SDS011;5505;51.450;9.254;2023-04-06T02:14:31;6.30;;;5.57;;
10904;SDS011;5505;51.450;9.254;2023-04-06T02:17:19;7.20;;;5.50;;
10904;SDS011;5505;51.450;9.254;2023-04-06T02:20:06;6.40;;;5.30;;
10904;SDS011;5505;51.450;9.254;2023-04-06T02:22:53;6.47;;;5.87;;
10904;SDS011;5505;51.450;9.254;2023-04-06T02:25:40;6.43;;;5.27;;
10904;SDS011;5505;51.450;9.254;2023-04-06T02:28:27;7.17;;;6.00;;
10904;SDS011;5505;51.450;9.254;2023-04-06T02:31:15;6.10;;;5.50;;
10904;SDS011;5505;51.450;9.254;2023-04-06T02:34:02;6.73;;;5.67;;
10904;SDS011;5505;51.450;9.254;2023-04-06T02:36:49;7.10;;;5.43;;
10904;SDS011;5505;51.450;9.254;2023-04-06T02:39:35;6.50;;;5.67;;
10904;SDS011;5505;51.450;9.254;2023-04-06T02:42:22;6.73;;;6.03;;
10904;SDS011;5505;51.450;9.254;2023-04-06T02:45:09;6.47;;;5.47;;
10904;SDS011;5505;51.450;9.254;2023-04-06T02:47:58;6.97;;;5.50;;
10904;SDS011;5505;51.450;9.254;2023-04-06T02:50:44;5.60;;;5.10;;
10904;SDS011;5505;51.450;9.254;2023-04-06T02:53:31;5.93;;;5.43;;
10904;SDS011;5505;51.450;9.254;2023-04-06T02:56:18;6.10;;;5.50;;
10904;SDS011;5505;51.450;9.254;2023-04-06T02:59:06;7.63;;;5.60;;
10904;SDS011;5505;51.450;9.254;2023-04-06T03:01:52;6.07;;;5.47;;
10904;SDS011;5505;51.450;9.254;2023-04-06T03:04:41;6.77;;;4.90;;
10904;SDS011;5505;51.450;9.254;2023-04-06T03:07:28;7.17;;;5.50;;
10904;SDS011;5505;51.450;9.254;2023-04-06T03:10:15;6.13;;;5.53;;
10904;SDS011;5505;51.450;9.254;2023-04-06T03:13:02;6.43;;;5.77;;
10904;SDS011;5505;51.450;9.254;2023-04-06T03:15:48;8.83;;;5.80;;
10904;SDS011;5505;51.450;9.254;2023-04-06T03:18:35;6.50;;;5.90;;
10904;SDS011;5505;51.450;9.254;2023-04-06T03:21:23;6.30;;;5.70;;
10904;SDS011;5505;51.450;9.254;2023-04-06T03:24:10;9.80;;;5.90;;
10904;SDS011;5505;51.450;9.254;2023-04-06T03:26:57;7.07;;;6.20;;
10904;SDS011;5505;51.450;9.254;2023-04-06T03:29:45;8.30;;;5.83;;
10904;SDS011;5505;51.450;9.254;2023-04-06T03:32:32;7.57;;;5.87;;
10904;SDS011;5505;51.450;9.254;2023-04-06T03:35:18;7.13;;;5.83;;
10904;SDS011;5505;51.450;9.254;2023-04-06T03:38:07;6.20;;;5.60;;
10904;SDS011;5505;51.450;9.254;2023-04-06T03:40:53;7.40;;;5.80;;
10904;SDS011;5505;51.450;9.254;2023-04-06T03:43:40;9.00;;;5.20;;
10904;SDS011;5505;51.450;9.254;2023-04-06T03:46:27;6.90;;;5.40;;
10904;SDS011;5505;51.450;9.254;2023-04-06T03:49:14;7.20;;;5.77;;
10904;SDS011;5505;51.450;9.254;2023-04-06T03:52:01;5.97;;;5.37;;
10904;SDS011;5505;51.450;9.254;2023-04-06T03:54:49;9.67;;;5.90;;
10904;SDS011;5505;51.450;9.254;2023-04-06T03:57:36;6.50;;;5.90;;
10904;SDS011;5505;51.450;9.254;2023-04-06T04:00:23;5.80;;;5.27;;
10904;SDS011;5505;51.450;9.254;2023-04-06T04:03:10;8.70;;;6.23;;
10904;SDS011;5505;51.450;9.254;2023-04-06T04:05:57;7.13;;;6.43;;
10904;SDS011;5505;51.450;9.254;2023-04-06T04:08:44;10.10;;;6.50;;
10904;SDS011;5505;51.450;9.254;2023-04-06T04:11:32;8.40;;;6.57;;
10904;SDS011;5505;51.450;9.254;2023-04-06T04:14:19;6.80;;;6.07;;
10904;SDS011;5505;51.450;9.254;2023-04-06T04:17:06;6.53;;;5.87;;
10904;SDS011;5505;51.450;9.254;2023-04-06T04:19:52;7.50;;;6.20;;
10904;SDS011;5505;51.450;9.254;2023-04-06T04:22:40;6.40;;;5.80;;
10904;SDS011;5505;51.450;9.254;2023-04-06T04:25:26;7.07;;;6.10;;
10904;SDS011;5505;51.450;9.254;2023-04-06T04:28:15;7.10;;;6.40;;
10904;SDS011;5505;51.450;9.254;2023-04-06T04:31:01;7.40;;;6.63;;
10904;SDS011;5505;51.450;9.254;2023-04-06T04:33:48;8.20;;;6.53;;
10904;SDS011;5505;51.450;9.254;2023-04-06T04:36:35;7.43;;;6.53;;
10904;SDS011;5505;51.450;9.254;2023-04-06T04:39:22;7.30;;;6.60;;
10904;SDS011;5505;51.450;9.254;2023-04-06T04:42:09;6.37;;;5.77;;
10904;SDS011;5505;51.450;9.254;2023-04-06T04:44:57;9.37;;;6.50;;
10904;SDS011;5505;51.450;9.254;2023-04-06T04:47:44;7.67;;;6.87;;
10904;SDS011;5505;51.450;9.254;2023-04-06T04:50:30;7.50;;;6.23;;
10904;SDS011;5505;51.450;9.254;2023-04-06T04:53:17;7.33;;;6.60;;
10904;SDS011;5505;51.450;9.254;2023-04-06T04:56:04;7.00;;;6.30;;
10904;SDS011;5505;51.450;9.254;2023-04-06T04:58:51;7.70;;;6.53;;
10904;SDS011;5505;51.450;9.254;2023-04-06T05:01:39;6.97;;;6.27;;
10904;SDS011;5505;51.450;9.254;2023-04-06T05:04:26;10.10;;;7.60;;
10904;SDS011;5505;51.450;9.254;2023-04-06T05:07:13;9.90;;;7.57;;
10904;SDS011;5505;51.450;9.254;2023-04-06T05:10:00;7.77;;;7.00;;
10904;SDS011;5505;51.450;9.254;2023-04-06T05:12:47;7.60;;;6.83;;
10904;SDS011;5505;51.450;9.254;2023-04-06T05:15:34;7.40;;;6.70;;
10904;SDS011;5505;51.450;9.254;2023-04-06T05:18:24;7.10;;;6.40;;
10904;SDS011;5505;51.450;9.254;2023-04-06T05:21:11;9.57;;;7.07;;
10904;SDS011;5505;51.450;9.254;2023-04-06T05:23:58;8.80;;;7.37;;
10904;SDS011;5505;51.450;9.254;2023-04-06T05:26:47;8.77;;;6.93;;
10904;SDS011;5505;51.450;9.254;2023-04-06T05:29:35;8.07;;;7.13;;
10904;SDS011;5505;51.450;9.254;2023-04-06T05:32:21;8.77;;;7.47;;
10904;SDS011;5505;51.450;9.254;2023-04-06T05:35:11;9.50;;;7.70;;
10904;SDS011;5505;51.450;9.254;2023-04-06T05:37:58;9.27;;;7.70;;
10904;SDS011;5505;51.450;9.254;2023-04-06T05:40:45;11.97;;;7.80;;
10904;SDS011;5505;51.450;9.254;2023-04-06T05:43:32;10.13;;;8.10;;
10904;SDS011;5505;51.450;9.254;2023-04-06T05:46:19;12.57;;;9.40;;
10904;SDS011;5505;51.450;9.254;2023-04-06T05:49:06;12.77;;;8.67;;
10904;SDS011;5505;51.450;9.254;2023-04-06T05:51:54;9.23;;;7.80;;
10904;SDS011;5505;51.450;9.254;2023-04-06T05:54:41;8.97;;;7.60;;
10904;SDS011;5505;51.450;9.254;2023-04-06T05:57:28;11.40;;;8.00;;
10904;SDS011;5505;51.450;9.254;2023-04-06T06:00:15;8.40;;;7.40;;
10904;SDS011;5505;51.450;9.254;2023-04-06T06:03:02;8.73;;;7.83;;
10904;SDS011;5505;51.450;9.254;2023-04-06T06:05:51;10.03;;;8.60;;
10904;SDS011;5505;51.450;9.254;2023-04-06T06:08:39;9.53;;;8.13;;
10904;SDS011;5505;51.450;9.254;2023-04-06T06:11:26;8.93;;;8.03;;
10904;SDS011;5505;51.450;9.254;2023-04-06T06:14:13;9.70;;;8.70;;
10904;SDS011;5505;51.450;9.254;2023-04-06T06:17:00;12.17;;;7.87;;
10904;SDS011;5505;51.450;9.254;2023-04-06T06:19:47;9.37;;;7.70;;
10904;SDS011;5505;51.450;9.254;2023-04-06T06:22:33;9.97;;;8.13;;
10904;SDS011;5505;51.450;9.254;2023-04-06T06:25:22;9.60;;;7.77;;
10904;SDS011;5505;51.450;9.254;2023-04-06T06:28:09;9.33;;;8.20;;
10904;SDS011;5505;51.450;9.254;2023-04-06T06:30:55;10.27;;;7.97;;
10904;SDS011;5505;51.450;9.254;2023-04-06T06:33:43;8.20;;;7.40;;
10904;SDS011;5505;51.450;9.254;2023-04-06T06:36:30;9.70;;;7.13;;
10904;SDS011;5505;51.450;9.254;2023-04-06T06:39:17;9.83;;;7.67;;
10904;SDS011;5505;51.450;9.254;2023-04-06T06:42:05;11.07;;;7.87;;
10904;SDS011;5505;51.450;9.254;2023-04-06T06:44:52;8.93;;;8.03;;
10904;SDS011;5505;51.450;9.254;2023-04-06T06:47:40;10.83;;;8.00;;
10904;SDS011;5505;51.450;9.254;2023-04-06T06:50:27;10.63;;;8.23;;
10904;SDS011;5505;51.450;9.254;2023-04-06T06:53:14;8.17;;;7.33;;
10904;SDS011;5505;51.450;9.254;2023-04-06T06:56:00;8.17;;;7.17;;
10904;SDS011;5505;51.450;9.254;2023-04-06T06:58:49;7.63;;;6.83;;
10904;SDS011;5505;51.450;9.254;2023-04-06T07:01:36;8.30;;;7.33;;
10904;SDS011;5505;51.450;9.254;2023-04-06T07:04:23;8.57;;;7.20;;
10904;SDS011;5505;51.450;9.254;2023-04-06T07:07:10;9.37;;;7.47;;
10904;SDS011;5505;51.450;9.254;2023-04-06T07:09:56;9.33;;;7.20;;
10904;SDS011;5505;51.450;9.254;2023-04-06T07:12:43;11.00;;;7.13;;
10904;SDS011;5505;51.450;9.254;2023-04-06T07:15:32;8.30;;;7.50;;
10904;SDS011;5505;51.450;9.254;2023-04-06T07:18:19;7.83;;;7.03;;
10904;SDS011;5505;51.450;9.254;2023-04-06T07:21:06;8.20;;;7.30;;
10904;SDS011;5505;51.450;9.254;2023-04-06T07:23:53;7.40;;;6.70;;
10904;SDS011;5505;51.450;9.254;2023-04-06T07:26:40;8.73;;;7.33;;
10904;SDS011;5505;51.450;9.254;2023-04-06T07:29:28;7.93;;;7.10;;
10904;SDS011;5505;51.450;9.254;2023-04-06T07:32:16;8.13;;;6.53;;
10904;SDS011;5505;51.450;9.254;2023-04-06T07:35:03;8.70;;;7.07;;
10904;SDS011;5505;51.450;9.254;2023-04-06T07:37:50;9.83;;;6.57;;
10904;SDS011;5505;51.450;9.254;2023-04-06T07:40:37;8.27;;;6.73;;
10904;SDS011;5505;51.450;9.254;2023-04-06T07:43:24;10.23;;;6.90;;
10904;SDS011;5505;51.450;9.254;2023-04-06T07:46:11;8.20;;;6.47;;
10904;SDS011;5505;51.450;9.254;2023-04-06T07:48:59;8.63;;;5.97;;
10904;SDS011;5505;51.450;9.254;2023-04-06T07:51:47;7.87;;;6.23;;
10904;SDS011;5505;51.450;9.254;2023-04-06T07:54:33;7.47;;;6.40;;
10904;SDS011;5505;51.450;9.254;2023-04-06T07:57:20;8.27;;;6.17;;
10904;SDS011;5505;51.450;9.254;2023-04-06T08:00:07;8.00;;;5.70;;
10904;SDS011;5505;51.450;9.254;2023-04-06T08:02:55;7.07;;;6.37;;
10904;SDS011;5505;51.450;9.254;2023-04-06T08:05:43;7.57;;;6.03;;
10904;SDS011;5505;51.450;9.254;2023-04-06T08:08:30;8.00;;;6.23;;
10904;SDS011;5505;51.450;9.254;2023-04-06T08:11:17;7.57;;;6.13;;
10904;SDS011;5505;51.450;9.254;2023-04-06T08:14:05;8.27;;;5.50;;
10904;SDS011;5505;51.450;9.254;2023-04-06T08:16:51;6.53;;;5.63;;
10904;SDS011;5505;51.450;9.254;2023-04-06T08:19:38;6.03;;;5.43;;
10904;SDS011;5505;51.450;9.254;2023-04-06T08:22:27;6.17;;;5.50;;
10904;SDS011;5505;51.450;9.254;2023-04-06T08:25:13;9.43;;;6.00;;
10904;SDS011;5505;51.450;9.254;2023-04-06T08:28:00;6.87;;;4.77;;
10904;SDS011;5505;51.450;9.254;2023-04-06T08:30:47;6.23;;;5.60;;
10904;SDS011;5505;51.450;9.254;2023-04-06T08:33:34;6.10;;;5.50;;
10904;SDS011;5505;51.450;9.254;2023-04-06T08:36:23;7.00;;;5.47;;
10904;SDS011;5505;51.450;9.254;2023-04-06T08:39:12;7.40;;;5.97;;
10904;SDS011;5505;51.450;9.254;2023-04-06T08:41:59;6.43;;;5.83;;
10904;SDS011;5505;51.450;9.254;2023-04-06T08:44:48;6.53;;;4.83;;
10904;SDS011;5505;51.450;9.254;2023-04-06T08:47:37;7.10;;;4.70;;
10904;SDS011;5505;51.450;9.254;2023-04-06T08:50:24;5.60;;;5.00;;
10904;SDS011;5505;51.450;9.254;2023-04-06T08:53:12;5.57;;;4.10;;
10904;SDS011;5505;51.450;9.254;2023-04-06T08:56:01;6.13;;;4.10;;
10904;SDS011;5505;51.450;9.254;2023-04-06T08:58:49;4.93;;;3.67;;
10904;SDS011;5505;51.450;9.254;2023-04-06T09:01:38;5.90;;;4.10;;
10904;SDS011;5505;51.450;9.254;2023-04-06T09:04:27;4.00;;;3.50;;
10904;SDS011;5505;51.450;9.254;2023-04-06T09:07:14;4.27;;;3.80;;
10904;SDS011;5505;51.450;9.254;2023-04-06T09:10:01;4.50;;;4.10;;
10904;SDS011;5505;51.450;9.254;2023-04-06T09:12:49;8.13;;;3.97;;
10904;SDS011;5505;51.450;9.254;2023-04-06T09:15:36;5.17;;;3.97;;
10904;SDS011;5505;51.450;9.254;2023-04-06T09:18:27;5.07;;;4.17;;
10904;SDS011;5505;51.450;9.254;2023-04-06T09:21:16;6.50;;;3.63;;
10904;SDS011;5505;51.450;9.254;2023-04-06T09:24:04;4.40;;;4.00;;
10904;SDS011;5505;51.450;9.254;2023-04-06T09:26:52;5.30;;;4.80;;
10904;SDS011;5505;51.450;9.254;2023-04-06T09:29:41;5.07;;;4.57;;
10904;SDS011;5505;51.450;9.254;2023-04-06T09:32:29;6.23;;;5.40;;
10904;SDS011;5505;51.450;9.254;2023-04-06T09:35:16;6.03;;;5.40;;
10904;SDS011;5505;51.450;9.254;2023-04-06T09:38:10;5.57;;;5.00;;
10904;SDS011;5505;51.450;9.254;2023-04-06T09:40:57;6.00;;;5.40;;
10904;SDS011;5505;51.450;9.254;2023-04-06T09:43:44;6.03;;;5.50;;
10904;SDS011;5505;51.450;9.254;2023-04-06T09:46:32;6.53;;;5.00;;
10904;SDS011;5505;51.450;9.254;2023-04-06T09:49:20;5.70;;;5.10;;
10904;SDS011;5505;51.450;9.254;2023-04-06T09:52:08;7.10;;;4.80;;
10904;SDS011;5505;51.450;9.254;2023-04-06T09:54:59;5.30;;;4.80;;
10904;SDS011;5505;51.450;9.254;2023-04-06T09:57:50;6.47;;;5.20;;
10904;SDS011;5505;51.450;9.254;2023-04-06T10:00:46;6.43;;;5.47;;
10904;SDS011;5505;51.450;9.254;2023-04-06T10:03:39;7.93;;;5.80;;
10904;SDS011;5505;51.450;9.254;2023-04-06T10:06:31;7.73;;;6.20;;
10904;SDS011;5505;51.450;9.254;2023-04-06T10:09:21;6.70;;;5.70;;
10904;SDS011;5505;51.450;9.254;2023-04-06T10:12:14;6.87;;;6.13;;
10904;SDS011;5505;51.450;9.254;2023-04-06T10:15:02;7.80;;;5.93;;
10904;SDS011;5505;51.450;9.254;2023-04-06T10:17:49;6.80;;;6.10;;
10904;SDS011;5505;51.450;9.254;2023-04-06T10:20:42;6.80;;;5.57;;
10904;SDS011;5505;51.450;9.254;2023-04-06T10:23:35;6.70;;;6.00;;
10904;SDS011;5505;51.450;9.254;2023-04-06T10:26:26;8.60;;;6.07;;
10904;SDS011;5505;51.450;9.254;2023-04-06T10:29:12;9.50;;;6.20;;
10904;SDS011;5505;51.450;9.254;2023-04-06T10:31:59;9.23;;;6.57;;
10904;SDS011;5505;51.450;9.254;2023-04-06T10:34:46;7.33;;;6.27;;
10904;SDS011;5505;51.450;9.254;2023-04-06T10:37:47;8.13;;;6.43;;
10904;SDS011;5505;51.450;9.254;2023-04-06T10:40:36;6.77;;;5.97;;
10904;SDS011;5505;51.450;9.254;2023-04-06T10:43:24;7.47;;;6.20;;
10904;SDS011;5505;51.450;9.254;2023-04-06T10:46:10;10.73;;;7.13;;
10904;SDS011;5505;51.450;9.254;2023-04-06T10:48:57;8.23;;;6.60;;
10904;SDS011;5505;51.450;9.254;2023-04-06T10:51:55;8.23;;;6.40;;
10904;SDS011;5505;51.450;9.254;2023-04-06T10:54:44;9.70;;;6.90;;
10904;SDS011;5505;51.450;9.254;2023-04-06T10:57:33;7.40;;;6.20;;
10904;SDS011;5505;51.450;9.254;2023-04-06T11:00:21;11.20;;;7.30;;
10904;SDS011;5505;51.450;9.254;2023-04-06T11:03:08;8.03;;;7.00;;
10904;SDS011;5505;51.450;9.254;2023-04-06T11:05:55;10.13;;;7.40;;
10904;SDS011;5505;51.450;9.254;2023-04-06T11:08:42;8.23;;;7.43;;
10904;SDS011;5505;51.450;9.254;2023-04-06T11:11:30;9.20;;;7.27;;
10904;SDS011;5505;51.450;9.254;2023-04-06T11:14:17;10.27;;;7.83;;
10904;SDS011;5505;51.450;9.254;2023-04-06T11:17:04;9.53;;;7.40;;
10904;SDS011;5505;51.450;9.254;2023-04-06T11:19:50;9.33;;;7.60;;
10904;SDS011;5505;51.450;9.254;2023-04-06T11:22:47;8.27;;;7.10;;
10904;SDS011;5505;51.450;9.254;2023-04-06T11:25:35;8.90;;;7.53;;
10904;SDS011;5505;51.450;9.254;2023-04-06T11:28:23;9.97;;;8.10;;
10904;SDS011;5505;51.450;9.254;2023-04-06T11:31:10;10.87;;;7.67;;
10904;SDS011;5505;51.450;9.254;2023-04-06T11:33:57;13.00;;;8.33;;
10904;SDS011;5505;51.450;9.254;2023-04-06T11:36:44;8.90;;;7.83;;
10904;SDS011;5505;51.450;9.254;2023-04-06T11:39:37;8.83;;;7.93;;
10904;SDS011;5505;51.450;9.254;2023-04-06T11:42:25;11.13;;;8.03;;
10904;SDS011;5505;51.450;9.254;2023-04-06T11:45:16;9.50;;;8.53;;
10904;SDS011;5505;51.450;9.254;2023-04-06T11:48:03;10.83;;;7.90;;
10904;SDS011;5505;51.450;9.254;2023-04-06T11:50:54;8.57;;;7.60;;
10904;SDS011;5505;51.450;9.254;2023-04-06T11:53:43;10.53;;;8.63;;
10904;SDS011;5505;51.450;9.254;2023-04-06T11:56:31;263.57;;;16.83;;
10904;SDS011;5505;51.450;9.254;2023-04-06T11:59:18;8.20;;;7.30;;
10904;SDS011;5505;51.450;9.254;2023-04-06T12:02:06;8.93;;;8.03;;
10904;SDS011;5505;51.450;9.254;2023-04-06T12:04:53;9.17;;;8.10;;
10904;SDS011;5505;51.450;9.254;2023-04-06T12:07:40;10.87;;;9.07;;
10904;SDS011;5505;51.450;9.254;2023-04-06T12:10:26;7.80;;;7.00;;
10904;SDS011;5505;51.450;9.254;2023-04-06T12:13:13;8.30;;;7.10;;
10904;SDS011;5505;51.450;9.254;2023-04-06T12:16:00;10.33;;;8.23;;
10904;SDS011;5505;51.450;9.254;2023-04-06T12:18:48;9.17;;;7.57;;
10904;SDS011;5505;51.450;9.254;2023-04-06T12:21:35;8.03;;;6.70;;
10904;SDS011;5505;51.450;9.254;2023-04-06T12:24:22;8.27;;;6.97;;
10904;SDS011;5505;51.450;9.254;2023-04-06T12:27:09;9.10;;;7.30;;
10904;SDS011;5505;51.450;9.254;2023-04-06T12:29:56;8.23;;;6.93;;
10904;SDS011;5505;51.450;9.254;2023-04-06T12:32:43;7.90;;;7.00;;
10904;SDS011;5505;51.450;9.254;2023-04-06T12:35:34;8.10;;;6.57;;
10904;SDS011;5505;51.450;9.254;2023-04-06T12:38:21;5.83;;;5.27;;
10904;SDS011;5505;51.450;9.254;2023-04-06T12:41:08;11.10;;;6.80;;
10904;SDS011;5505;51.450;9.254;2023-04-06T12:43:55;10.90;;;6.80;;
10904;SDS011;5505;51.450;9.254;2023-04-06T12:46:42;7.33;;;6.40;;
10904;SDS011;5505;51.450;9.254;2023-04-06T12:49:28;7.23;;;6.53;;
10904;SDS011;5505;51.450;9.254;2023-04-06T12:52:17;7.10;;;6.40;;
10904;SDS011;5505;51.450;9.254;2023-04-06T12:55:04;9.30;;;6.17;;
10904;SDS011;5505;51.450;9.254;2023-04-06T12:57:51;7.57;;;6.13;;
10904;SDS011;5505;51.450;9.254;2023-04-06T13:00:39;6.00;;;5.40;;
10904;SDS011;5505;51.450;9.254;2023-04-06T13:03:25;7.37;;;6.60;;
10904;SDS011;5505;51.450;9.254;2023-04-06T13:06:12;7.07;;;6.03;;
10904;SDS011;5505;51.450;9.254;2023-04-06T13:09:01;8.63;;;6.87;;
10904;SDS011;5505;51.450;9.254;2023-04-06T13:11:50;9.50;;;7.03;;
10904;SDS011;5505;51.450;9.254;2023-04-06T13:14:37;8.03;;;6.43;;
10904;SDS011;5505;51.450;9.254;2023-04-06T13:17:26;7.60;;;6.00;;
10904;SDS011;5505;51.450;9.254;2023-04-06T13:20:13;10.17;;;9.07;;
10904;SDS011;5505;51.450;9.254;2023-04-06T13:23:00;7.83;;;6.67;;
10904;SDS011;5505;51.450;9.254;2023-04-06T13:25:48;8.33;;;6.80;;
10904;SDS011;5505;51.450;9.254;2023-04-06T13:28:43;6.90;;;6.20;;
10904;SDS011;5505;51.450;9.254;2023-04-06T13:31:30;8.00;;;6.53;;
10904;SDS011;5505;51.450;9.254;2023-04-06T13:34:17;7.83;;;6.30;;
10904;SDS011;5505;51.450;9.254;2023-04-06T13:37:04;6.60;;;5.90;;
10904;SDS011;5505;51.450;9.254;2023-04-06T13:39:51;7.17;;;5.67;;
10904;SDS011;5505;51.450;9.254;2023-04-06T13:42:39;6.70;;;5.73;;
10904;SDS011;5505;51.450;9.254;2023-04-06T13:45:28;7.17;;;5.77;;
10904;SDS011;5505;51.450;9.254;2023-04-06T13:48:15;6.57;;;5.73;;
10904;SDS011;5505;51.450;9.254;2023-04-06T13:51:07;6.73;;;5.43;;
10904;SDS011;5505;51.450;9.254;2023-04-06T13:53:54;6.47;;;5.57;;
10904;SDS011;5505;51.450;9.254;2023-04-06T13:56:41;7.10;;;5.97;;
10904;SDS011;5505;51.450;9.254;2023-04-06T13:59:32;6.97;;;6.23;;
10904;SDS011;5505;51.450;9.254;2023-04-06T14:02:20;7.17;;;6.03;;
10904;SDS011;5505;51.450;9.254;2023-04-06T14:05:12;7.80;;;6.20;;
10904;SDS011;5505;51.450;9.254;2023-04-06T14:07:59;7.10;;;5.83;;
10904;SDS011;5505;51.450;9.254;2023-04-06T14:10:46;6.93;;;5.63;;
10904;SDS011;5505;51.450;9.254;2023-04-06T14:13:32;6.47;;;5.43;;
10904;SDS011;5505;51.450;9.254;2023-04-06T14:16:21;7.30;;;5.50;;
10904;SDS011;5505;51.450;9.254;2023-04-06T14:19:09;6.57;;;4.93;;
10904;SDS011;5505;51.450;9.254;2023-04-06T14:21:57;5.13;;;4.50;;
10904;SDS011;5505;51.450;9.254;2023-04-06T14:24:44;5.07;;;4.57;;
10904;SDS011;5505;51.450;9.254;2023-04-06T14:27:31;6.20;;;4.60;;
10904;SDS011;5505;51.450;9.254;2023-04-06T14:30:18;5.03;;;4.53;;
10904;SDS011;5505;51.450;9.254;2023-04-06T14:33:07;6.53;;;4.93;;
10904;SDS011;5505;51.450;9.254;2023-04-06T14:35:53;5.33;;;4.50;;
10904;SDS011;5505;51.450;9.254;2023-04-06T14:38:41;6.37;;;5.50;;
10904;SDS011;5505;51.450;9.254;2023-04-06T14:41:28;6.90;;;5.13;;
10904;SDS011;5505;51.450;9.254;2023-04-06T14:44:16;5.57;;;4.70;;
10904;SDS011;5505;51.450;9.254;2023-04-06T14:47:02;5.53;;;5.03;;
10904;SDS011;5505;51.450;9.254;2023-04-06T14:49:51;5.23;;;4.70;;
10904;SDS011;5505;51.450;9.254;2023-04-06T14:52:39;5.13;;;4.63;;
10904;SDS011;5505;51.450;9.254;2023-04-06T14:55:26;5.60;;;4.60;;
10904;SDS011;5505;51.450;9.254;2023-04-06T14:58:13;5.30;;;4.80;;
10904;SDS011;5505;51.450;9.254;2023-04-06T15:01:00;6.07;;;5.10;;
10904;SDS011;5505;51.450;9.254;2023-04-06T15:03:48;5.50;;;4.93;;
10904;SDS011;5505;51.450;9.254;2023-04-06T15:06:36;7.60;;;5.30;;
10904;SDS011;5505;51.450;9.254;2023-04-06T15:09:23;8.17;;;5.87;;
10904;SDS011;5505;51.450;9.254;2023-04-06T15:12:10;5.10;;;4.60;;
10904;SDS011;5505;51.450;9.254;2023-04-06T15:14:57;7.30;;;6.53;;
10904;SDS011;5505;51.450;9.254;2023-04-06T15:17:45;6.77;;;4.87;;
10904;SDS011;5505;51.450;9.254;2023-04-06T15:20:32;6.07;;;5.00;;
10904;SDS011;5505;51.450;9.254;2023-04-06T15:23:21;7.73;;;5.33;;
10904;SDS011;5505;51.450;9.254;2023-04-06T15:26:08;7.80;;;5.03;;
10904;SDS011;5505;51.450;9.254;2023-04-06T15:28:55;5.90;;;5.30;;
10904;SDS011;5505;51.450;9.254;2023-04-06T15:31:41;6.97;;;5.40;;
10904;SDS011;5505;51.450;9.254;2023-04-06T15:34:30;6.63;;;5.00;;
10904;SDS011;5505;51.450;9.254;2023-04-06T15:37:19;7.50;;;5.47;;
10904;SDS011;5505;51.450;9.254;2023-04-06T15:40:08;5.67;;;5.07;;
10904;SDS011;5505;51.450;9.254;2023-04-06T15:42:58;6.80;;;5.37;;
10904;SDS011;5505;51.450;9.254;2023-04-06T15:45:45;5.30;;;4.80;;
10904;SDS011;5505;51.450;9.254;2023-04-06T15:48:31;6.97;;;5.00;;
10904;SDS011;5505;51.450;9.254;2023-04-06T15:51:19;7.07;;;5.40;;
10904;SDS011;5505;51.450;9.254;2023-04-06T15:54:05;5.33;;;4.77;;
10904;SDS011;5505;51.450;9.254;2023-04-06T15:56:54;9.37;;;4.97;;
10904;SDS011;5505;51.450;9.254;2023-04-06T15:59:40;9.77;;;7.10;;
10904;SDS011;5505;51.450;9.254;2023-04-06T16:02:27;7.27;;;5.90;;
10904;SDS011;5505;51.450;9.254;2023-04-06T16:05:14;6.23;;;5.10;;
10904;SDS011;5505;51.450;9.254;2023-04-06T16:08:01;6.00;;;5.13;;
10904;SDS011;5505;51.450;9.254;2023-04-06T16:10:47;6.10;;;5.30;;
10904;SDS011;5505;51.450;9.254;2023-04-06T16:13:36;5.47;;;4.70;;
10904;SDS011;5505;51.450;9.254;2023-04-06T16:16:22;7.53;;;5.30;;
10904;SDS011;5505;51.450;9.254;2023-04-06T16:19:09;6.40;;;5.23;;
10904;SDS011;5505;51.450;9.254;2023-04-06T16:21:56;5.73;;;5.17;;
10904;SDS011;5505;51.450;9.254;2023-04-06T16:24:43;6.07;;;5.50;;
10904;SDS011;5505;51.450;9.254;2023-04-06T16:27:30;6.73;;;5.13;;
10904;SDS011;5505;51.450;9.254;2023-04-06T16:30:18;7.87;;;4.87;;
10904;SDS011;5505;51.450;9.254;2023-04-06T16:33:05;7.33;;;5.23;;
10904;SDS011;5505;51.450;9.254;2023-04-06T16:35:52;5.70;;;5.10;;
10904;SDS011;5505;51.450;9.254;2023-04-06T16:38:39;7.60;;;5.50;;
10904;SDS011;5505;51.450;9.254;2023-04-06T16:41:26;7.33;;;5.13;;
10904;SDS011;5505;51.450;9.254;2023-04-06T16:44:13;6.43;;;5.17;;
10904;SDS011;5505;51.450;9.254;2023-04-06T16:47:01;6.17;;;5.57;;
10904;SDS011;5505;51.450;9.254;2023-04-06T16:49:50;7.17;;;5.67;;
10904;SDS011;5505;51.450;9.254;2023-04-06T16:52:37;8.63;;;5.80;;
10904;SDS011;5505;51.450;9.254;2023-04-06T16:55:25;6.23;;;5.30;;
10904;SDS011;5505;51.450;9.254;2023-04-06T16:58:12;5.87;;;5.27;;
10904;SDS011;5505;51.450;9.254;2023-04-06T17:00:59;5.67;;;5.17;;
10904;SDS011;5505;51.450;9.254;2023-04-06T17:03:47;5.83;;;5.23;;